createdAt,value
2019-05-10T00:02:19.180Z,9.94
2019-05-10T00:05:04.240Z,9.90
2019-05-10T00:07:48.939Z,9.87
2019-05-10T00:10:16.553Z,9.83
2019-05-10T00:13:05.426Z,9.86
2019-05-10T00:15:34.299Z,9.85
2019-05-10T00:18:00.936Z,9.83
2019-05-10T00:20:27.513Z,9.84
2019-05-10T00:22:54.105Z,9.86
2019-05-10T00:25:20.610Z,9.86
2019-05-10T00:27:47.778Z,9.90
2019-05-10T00:30:14.390Z,9.95
2019-05-10T00:32:40.968Z,9.95
2019-05-10T00:35:07.631Z,10.01
2019-05-10T00:37:34.200Z,10.04
2019-05-10T00:40:00.697Z,10.05
2019-05-10T00:42:27.239Z,10.11
2019-05-10T00:44:53.767Z,10.15
2019-05-10T00:47:20.459Z,10.08
2019-05-10T00:49:47.039Z,10.02
2019-05-10T00:52:13.680Z,9.97
2019-05-10T00:54:40.262Z,9.95
2019-05-10T00:57:06.875Z,9.90
2019-05-10T00:59:33.404Z,9.84
2019-05-10T01:02:00.096Z,9.79
2019-05-10T01:04:26.696Z,9.72
2019-05-10T01:06:56.250Z,9.68
2019-05-10T01:09:22.035Z,9.63
2019-05-10T01:11:48.699Z,9.60
2019-05-10T01:14:15.232Z,9.63
2019-05-10T01:16:41.931Z,9.62
2019-05-10T01:19:08.727Z,9.61
2019-05-10T01:21:35.471Z,9.60
2019-05-10T01:24:02.256Z,9.64
2019-05-10T01:26:28.941Z,9.68
2019-05-10T01:28:55.517Z,9.73
2019-05-10T01:31:22.170Z,9.80
2019-05-10T01:33:48.857Z,9.86
2019-05-10T01:36:15.896Z,9.89
2019-05-10T01:38:42.587Z,9.94
2019-05-10T01:41:09.111Z,9.99
2019-05-10T01:43:35.667Z,10.01
2019-05-10T01:46:02.601Z,10.00
2019-05-10T01:48:29.162Z,9.99
2019-05-10T01:50:55.721Z,9.99
2019-05-10T01:53:22.475Z,9.99
2019-05-10T01:55:52.458Z,10.00
2019-05-10T01:58:17.835Z,10.01
2019-05-10T02:00:44.402Z,10.01
2019-05-10T02:05:43.870Z,10.06
2019-05-10T02:08:11.945Z,10.03
2019-05-10T02:10:39.174Z,10.03
2019-05-10T02:13:05.757Z,10.03
2019-05-10T02:15:32.604Z,10.05
2019-05-10T02:17:59.277Z,10.04
2019-05-10T02:20:26.091Z,10.08
2019-05-10T02:22:52.720Z,10.15
2019-05-10T02:25:19.257Z,10.15
2019-05-10T02:27:45.894Z,10.14
2019-05-10T02:30:12.864Z,10.14
2019-05-10T02:32:39.481Z,10.13
2019-05-10T02:35:06.806Z,10.13
2019-05-10T02:37:33.778Z,10.15
2019-05-10T02:40:00.347Z,10.14
2019-05-10T02:42:26.940Z,10.16
2019-05-10T02:44:53.697Z,10.16
2019-05-10T02:47:20.348Z,10.18
2019-05-10T02:49:46.956Z,10.16
2019-05-10T02:52:13.953Z,10.15
2019-05-10T02:54:40.665Z,10.17
2019-05-10T02:57:07.733Z,10.18
2019-05-10T02:59:34.619Z,10.19
2019-05-10T03:02:03.907Z,10.20
2019-05-10T03:04:32.650Z,10.20
2019-05-10T03:07:03.997Z,10.17
2019-05-10T03:09:31.000Z,10.10
2019-05-10T03:12:09.005Z,10.09
2019-05-10T03:14:40.280Z,10.09
2019-05-10T03:17:06.895Z,10.14
2019-05-10T03:19:35.038Z,10.15
2019-05-10T03:22:05.225Z,10.14
2019-05-10T03:24:34.216Z,10.13
2019-05-10T03:27:01.006Z,10.13
2019-05-10T03:29:27.953Z,10.16
2019-05-10T03:31:54.642Z,10.16
2019-05-10T03:34:21.442Z,10.17
2019-05-10T03:36:48.752Z,10.17
2019-05-10T03:39:16.380Z,10.16
2019-05-10T03:41:43.305Z,10.18
2019-05-10T03:44:11.455Z,10.19
2019-05-10T03:46:38.817Z,10.17
2019-05-10T03:49:06.328Z,10.17
2019-05-10T03:51:33.595Z,10.17
2019-05-10T03:54:01.630Z,10.16
2019-05-10T03:56:30.026Z,10.19
2019-05-10T03:58:57.006Z,10.18
2019-05-10T04:01:23.793Z,10.17
2019-05-10T04:03:50.784Z,10.15
2019-05-10T04:06:29.710Z,10.21
2019-05-10T04:08:56.718Z,10.24
2019-05-10T04:11:24.847Z,10.25
2019-05-10T04:13:51.711Z,10.24
2019-05-10T04:16:18.538Z,10.26
2019-05-10T04:18:45.836Z,10.25
2019-05-10T04:21:12.447Z,10.27
2019-05-10T04:23:39.199Z,10.28
2019-05-10T04:26:05.759Z,10.33
2019-05-10T04:28:32.626Z,10.34
2019-05-10T04:30:59.246Z,10.36
2019-05-10T04:33:26.025Z,10.40
2019-05-10T04:35:52.719Z,10.44
2019-05-10T04:38:19.259Z,10.42
2019-05-10T04:40:59.030Z,10.42
2019-05-10T04:43:25.891Z,10.42
2019-05-10T04:45:52.617Z,10.38
2019-05-10T04:48:19.541Z,10.37
2019-05-10T04:50:49.004Z,10.33
2019-05-10T04:53:14.530Z,10.24
2019-05-10T04:55:41.101Z,10.19
2019-05-10T04:58:07.613Z,10.17
2019-05-10T05:00:45.836Z,10.18
2019-05-10T05:03:12.467Z,10.19
2019-05-10T05:05:43.115Z,10.36
2019-05-10T05:08:09.836Z,10.36
2019-05-10T05:10:36.474Z,10.27
2019-05-10T05:13:03.085Z,10.39
2019-05-10T05:15:44.940Z,10.68
2019-05-10T05:18:11.607Z,10.91
2019-05-10T05:20:38.231Z,11.22
2019-05-10T05:23:24.232Z,11.51
2019-05-10T05:25:50.780Z,11.74
2019-05-10T05:28:18.384Z,11.99
2019-05-10T05:33:43.795Z,12.38
2019-05-10T05:36:10.491Z,12.67
2019-05-10T05:38:40.420Z,12.87
2019-05-10T05:41:05.759Z,13.03
2019-05-10T05:43:32.313Z,13.13
2019-05-10T05:45:58.833Z,13.49
2019-05-10T05:48:39.446Z,13.74
2019-05-10T05:50:53.976Z,13.97
2019-05-10T05:53:22.482Z,14.27
2019-05-10T05:55:50.255Z,13.96
2019-05-10T05:58:26.840Z,13.61
2019-05-10T06:00:46.775Z,13.29
2019-05-10T06:03:19.689Z,13.03
2019-05-10T06:05:43.287Z,12.79
2019-05-10T06:08:22.393Z,12.61
2019-05-10T06:10:44.111Z,12.45
2019-05-10T06:13:15.210Z,12.36
2019-05-10T06:15:41.970Z,12.19
2019-05-10T06:18:09.689Z,12.13
2019-05-10T06:20:38.113Z,12.07
2019-05-10T06:23:07.133Z,11.92
2019-05-10T06:25:42.685Z,11.85
2019-05-10T06:28:03.425Z,11.79
2019-05-10T06:30:30.092Z,11.81
2019-05-10T06:33:00.842Z,11.75
2019-05-10T06:35:25.065Z,11.66
2019-05-10T06:37:51.641Z,11.61
2019-05-10T06:40:18.589Z,11.70
2019-05-10T06:42:47.466Z,11.79
2019-05-10T06:45:16.205Z,11.83
2019-05-10T06:47:47.701Z,12.31
2019-05-10T06:50:12.062Z,13.08
2019-05-10T06:52:38.635Z,13.47
2019-05-10T06:55:06.540Z,14.00
2019-05-10T06:57:33.308Z,14.57
2019-05-10T07:00:06.158Z,14.96
2019-05-10T07:02:32.339Z,15.15
2019-05-10T07:04:58.139Z,15.30
2019-05-10T07:07:42.661Z,15.55
2019-05-10T07:10:10.096Z,15.51
2019-05-10T07:12:22.696Z,15.54
2019-05-10T07:14:49.459Z,15.12
2019-05-10T07:17:16.550Z,15.01
2019-05-10T07:19:53.283Z,14.80
2019-05-10T07:22:12.065Z,15.34
2019-05-10T07:24:38.853Z,15.40
2019-05-10T07:27:06.886Z,15.01
2019-05-10T07:29:43.421Z,15.12
2019-05-10T07:32:06.015Z,15.74
2019-05-10T07:34:32.464Z,16.16
2019-05-10T07:37:02.159Z,16.17
2019-05-10T07:39:29.736Z,16.76
2019-05-10T07:42:00.309Z,16.80
2019-05-10T07:44:25.120Z,16.58
2019-05-10T07:46:58.503Z,16.17
2019-05-10T07:49:29.984Z,15.68
2019-05-10T07:51:53.815Z,15.89
2019-05-10T07:54:20.432Z,16.13
2019-05-10T07:56:47.905Z,16.74
2019-05-10T07:59:16.269Z,16.75
2019-05-10T08:01:48.633Z,16.32
2019-05-10T08:04:13.097Z,15.73
2019-05-10T08:06:45.180Z,15.71
2019-05-10T08:09:09.708Z,16.25
2019-05-10T08:11:38.926Z,16.95
2019-05-10T08:14:19.262Z,17.37
2019-05-10T08:16:51.890Z,17.43
2019-05-10T08:19:15.405Z,17.48
2019-05-10T08:21:42.103Z,17.90
2019-05-10T08:24:13.638Z,18.25
2019-05-10T08:26:38.689Z,18.37
2019-05-10T08:29:07.610Z,18.37
2019-05-10T08:31:40.492Z,18.73
2019-05-10T08:34:03.500Z,18.55
2019-05-10T08:36:32.226Z,17.74
2019-05-10T08:39:13.102Z,17.74
2019-05-10T08:42:04.205Z,18.25
2019-05-10T08:44:24.486Z,17.90
2019-05-10T08:46:52.538Z,17.20
2019-05-10T08:49:39.451Z,16.62
2019-05-10T08:51:56.913Z,16.00
2019-05-10T08:54:26.445Z,15.81
2019-05-10T08:57:01.200Z,15.92
2019-05-10T08:59:26.674Z,15.76
2019-05-10T09:01:53.754Z,15.60
2019-05-10T09:04:25.083Z,15.38
2019-05-10T09:06:55.323Z,15.09
2019-05-10T09:09:22.699Z,14.81
2019-05-10T09:11:48.980Z,14.82
2019-05-10T09:14:20.279Z,14.85
2019-05-10T09:16:50.845Z,14.76
2019-05-10T09:19:13.089Z,14.56
2019-05-10T09:21:41.011Z,14.20
2019-05-10T09:24:12.855Z,14.20
2019-05-10T09:26:41.836Z,14.29
2019-05-10T09:29:08.380Z,14.81
2019-05-10T09:31:39.265Z,14.93
2019-05-10T09:34:04.562Z,15.16
2019-05-10T09:36:36.009Z,15.04
2019-05-10T09:38:59.986Z,14.68
2019-05-10T09:41:27.679Z,14.41
2019-05-10T09:43:58.543Z,14.27
2019-05-10T09:46:25.413Z,14.12
2019-05-10T09:48:54.665Z,14.30
2019-05-10T09:51:25.485Z,14.25
2019-05-10T09:53:49.180Z,14.07
2019-05-10T09:56:17.337Z,14.19
2019-05-10T09:58:44.763Z,14.37
2019-05-10T10:01:18.140Z,14.53
2019-05-10T10:03:43.568Z,14.75
2019-05-10T10:06:11.378Z,14.82
2019-05-10T10:08:51.193Z,14.70
2019-05-10T10:11:15.718Z,14.67
2019-05-10T10:13:44.001Z,14.92
2019-05-10T10:16:21.891Z,15.28
2019-05-10T10:18:48.397Z,15.55
2019-05-10T10:21:18.859Z,16.21
2019-05-10T10:23:43.850Z,16.29
2019-05-10T10:26:12.663Z,16.53
2019-05-10T10:28:39.803Z,15.96
2019-05-10T10:31:08.494Z,15.72
2019-05-10T10:33:38.185Z,16.26
2019-05-10T10:36:09.948Z,16.41
2019-05-10T10:38:39.150Z,17.07
2019-05-10T10:41:02.415Z,17.53
2019-05-10T10:43:28.994Z,17.88
2019-05-10T10:45:57.455Z,17.52
2019-05-10T10:48:24.324Z,17.14
2019-05-10T10:50:55.555Z,16.75
2019-05-10T10:53:19.336Z,16.31
2019-05-10T10:55:54.155Z,16.31
2019-05-10T10:58:14.598Z,16.07
2019-05-10T11:00:41.621Z,16.15
2019-05-10T11:03:08.330Z,16.28
2019-05-10T11:05:36.017Z,16.11
2019-05-10T11:08:02.857Z,16.06
2019-05-10T11:10:34.910Z,16.13
2019-05-10T11:13:10.711Z,16.25
2019-05-10T11:15:35.985Z,16.10
2019-05-10T11:18:00.525Z,15.59
2019-05-10T11:20:27.268Z,15.50
2019-05-10T11:22:53.901Z,15.39
2019-05-10T11:25:21.305Z,14.91
2019-05-10T11:27:53.902Z,14.96
2019-05-10T11:30:18.092Z,14.63
2019-05-10T11:32:44.608Z,14.23
2019-05-10T11:35:17.422Z,14.03
2019-05-10T11:37:45.392Z,13.93
2019-05-10T11:40:18.082Z,13.77
2019-05-10T11:42:45.845Z,13.72
2019-05-10T11:45:11.123Z,13.90
2019-05-10T11:47:37.873Z,14.19
2019-05-10T11:50:06.579Z,14.61
2019-05-10T11:52:34.609Z,14.86
2019-05-10T11:55:02.152Z,15.10
2019-05-10T11:57:32.380Z,15.24
2019-05-10T11:59:57.122Z,15.56
2019-05-10T12:02:37.293Z,15.91
2019-05-10T12:04:54.169Z,16.03
2019-05-10T12:07:24.577Z,15.89
2019-05-10T12:09:55.728Z,15.84
2019-05-10T12:12:30.625Z,15.95
2019-05-10T12:14:49.047Z,16.19
2019-05-10T12:17:15.638Z,16.55
2019-05-10T12:19:45.492Z,16.94
2019-05-10T12:22:15.956Z,17.33
2019-05-10T12:24:57.146Z,16.85
2019-05-10T12:27:18.877Z,15.64
2019-05-10T12:29:36.628Z,15.31
2019-05-10T12:32:06.282Z,15.31
2019-05-10T12:34:33.369Z,15.54
2019-05-10T12:37:08.272Z,16.04
2019-05-10T12:39:36.573Z,16.02
2019-05-10T12:42:03.432Z,16.02
2019-05-10T12:44:33.500Z,16.19
2019-05-10T12:47:01.249Z,16.12
2019-05-10T12:49:28.020Z,16.40
2019-05-10T12:51:54.603Z,16.72
2019-05-10T12:54:23.833Z,17.34
2019-05-10T12:56:49.850Z,17.12
2019-05-10T12:59:16.596Z,16.62
2019-05-10T13:01:43.124Z,15.94
2019-05-10T13:04:14.634Z,16.06
2019-05-10T13:06:38.167Z,16.13
2019-05-10T13:09:05.632Z,16.00
2019-05-10T13:11:32.297Z,15.70
2019-05-10T13:14:00.888Z,15.56
2019-05-10T13:16:27.623Z,15.51
2019-05-10T13:18:54.221Z,15.68
2019-05-10T13:21:23.058Z,15.81
2019-05-10T13:23:53.206Z,15.80
2019-05-10T13:26:17.736Z,15.74
2019-05-10T13:28:44.767Z,16.05
2019-05-10T13:31:14.865Z,16.28
2019-05-10T13:33:42.265Z,16.51
2019-05-10T13:36:08.442Z,17.08
2019-05-10T13:38:36.900Z,17.70
2019-05-10T13:41:03.489Z,17.90
2019-05-10T13:43:31.178Z,17.85
2019-05-10T13:45:57.821Z,17.47
2019-05-10T13:48:26.614Z,16.86
2019-05-10T13:50:54.106Z,16.50
2019-05-10T13:53:23.058Z,16.52
2019-05-10T13:55:49.214Z,17.13
2019-05-10T13:58:16.012Z,17.13
2019-05-10T14:00:45.787Z,16.84
2019-05-10T14:03:14.616Z,16.89
2019-05-10T14:05:41.622Z,17.38
2019-05-10T14:08:09.490Z,17.42
2019-05-10T14:10:36.071Z,17.36
2019-05-10T14:13:04.118Z,17.86
2019-05-10T14:15:31.668Z,18.00
2019-05-10T14:17:58.894Z,18.21
2019-05-10T14:20:27.644Z,17.93
2019-05-10T14:22:58.389Z,17.55
2019-05-10T14:25:22.962Z,17.06
2019-05-10T14:27:51.885Z,16.83
2019-05-10T14:30:19.847Z,16.68
2019-05-10T14:32:46.491Z,16.58
2019-05-10T14:35:16.490Z,16.34
2019-05-10T14:37:41.794Z,16.54
2019-05-10T14:40:08.376Z,16.41
2019-05-10T14:42:35.062Z,16.89
2019-05-10T14:45:02.254Z,17.50
2019-05-10T14:47:28.884Z,17.66
2019-05-10T14:49:55.695Z,17.52
2019-05-10T14:52:22.841Z,17.15
2019-05-10T14:54:54.832Z,16.98
2019-05-10T14:57:18.172Z,16.76
2019-05-10T14:59:44.942Z,16.54
2019-05-10T15:02:17.039Z,16.49
2019-05-10T15:04:46.305Z,16.36
2019-05-10T15:07:14.338Z,16.43
2019-05-10T15:09:40.548Z,16.38
2019-05-10T15:12:10.095Z,16.23
2019-05-10T15:14:35.675Z,16.22
2019-05-10T15:17:02.267Z,15.94
2019-05-10T15:19:31.520Z,15.67
2019-05-10T15:21:57.740Z,15.63
2019-05-10T15:24:25.350Z,15.68
2019-05-10T15:26:53.614Z,15.81
2019-05-10T15:29:22.535Z,15.90
2019-05-10T15:31:48.968Z,15.91
2019-05-10T15:34:15.883Z,16.09
2019-05-10T15:36:42.793Z,16.19
2019-05-10T15:39:09.306Z,16.31
2019-05-10T15:41:36.309Z,16.33
2019-05-10T15:44:03.063Z,16.28
2019-05-10T15:46:39.906Z,16.24
2019-05-10T15:48:58.065Z,16.27
2019-05-10T15:51:35.614Z,16.14
2019-05-10T15:54:03.682Z,16.03
2019-05-10T15:56:22.087Z,15.88
2019-05-10T15:58:49.670Z,15.92
2019-05-10T16:01:26.021Z,16.02
2019-05-10T16:03:46.198Z,16.11
2019-05-10T16:06:12.861Z,16.03
2019-05-10T16:08:43.643Z,15.97
2019-05-10T16:11:17.548Z,16.07
2019-05-10T16:13:38.934Z,16.12
2019-05-10T16:16:05.472Z,16.39
2019-05-10T16:18:33.340Z,16.48
2019-05-10T16:21:00.899Z,16.61
2019-05-10T16:23:27.717Z,16.69
2019-05-10T16:25:58.485Z,16.58
2019-05-10T16:28:25.136Z,16.58
2019-05-10T16:30:51.755Z,16.33
2019-05-10T16:33:18.677Z,15.90
2019-05-10T16:35:49.757Z,15.71
2019-05-10T16:38:19.818Z,15.61
2019-05-10T16:40:57.480Z,15.56
2019-05-10T16:43:20.558Z,15.47
2019-05-10T16:45:43.711Z,15.35
2019-05-10T16:48:12.666Z,15.18
2019-05-10T16:50:39.457Z,15.29
2019-05-10T16:53:08.115Z,15.33
2019-05-10T16:55:35.487Z,15.37
2019-05-10T16:58:03.169Z,15.26
2019-05-10T17:00:31.099Z,15.20
2019-05-10T17:02:57.756Z,15.06
2019-05-10T17:05:24.547Z,14.67
2019-05-10T17:07:53.830Z,14.44
2019-05-10T17:10:19.822Z,14.39
2019-05-10T17:12:46.612Z,14.29
2019-05-10T17:15:13.306Z,14.41
2019-05-10T17:17:39.847Z,14.49
2019-05-10T17:20:15.980Z,14.48
2019-05-10T17:22:42.654Z,14.35
2019-05-10T17:25:09.422Z,14.47
2019-05-10T17:27:36.165Z,14.45
2019-05-10T17:30:03.853Z,14.37
2019-05-10T17:32:30.667Z,14.35
2019-05-10T17:34:59.261Z,14.44
2019-05-10T17:37:29.840Z,14.47
2019-05-10T17:39:54.633Z,14.46
2019-05-10T17:42:21.493Z,14.34
2019-05-10T17:44:48.198Z,14.20
2019-05-10T17:47:15.270Z,14.13
2019-05-10T17:49:41.918Z,14.16
2019-05-10T17:52:13.879Z,14.06
2019-05-10T17:54:40.967Z,13.88
2019-05-10T17:57:10.684Z,13.78
2019-05-10T17:59:38.849Z,13.57
2019-05-10T18:02:07.152Z,13.40
2019-05-10T18:04:35.730Z,13.24
2019-05-10T18:07:03.353Z,13.15
2019-05-10T18:09:31.501Z,13.13
2019-05-10T18:12:15.655Z,13.17
2019-05-10T18:14:40.790Z,13.22
2019-05-10T18:17:08.822Z,13.24
2019-05-10T18:19:36.746Z,13.15
2019-05-10T18:22:07.170Z,13.17
2019-05-10T18:24:41.405Z,13.13
2019-05-10T18:27:05.266Z,13.13
2019-05-10T18:29:33.481Z,13.08
2019-05-10T18:32:00.100Z,13.02
2019-05-10T18:34:33.203Z,13.01
2019-05-10T18:39:35.597Z,13.02
2019-05-10T18:42:02.160Z,12.94
2019-05-10T18:44:28.781Z,12.93
2019-05-10T18:46:55.286Z,12.87
2019-05-10T18:49:21.928Z,12.79
2019-05-10T18:51:48.620Z,12.76
2019-05-10T18:54:15.434Z,12.68
2019-05-10T18:56:42.502Z,12.63
2019-05-10T18:59:09.508Z,12.54
2019-05-10T19:01:38.741Z,12.44
2019-05-10T19:04:07.214Z,12.34
2019-05-10T19:06:33.872Z,12.28
2019-05-10T19:09:01.175Z,12.15
2019-05-10T19:11:33.318Z,12.03
2019-05-10T19:13:56.697Z,11.94
2019-05-10T19:16:25.983Z,11.84
2019-05-10T19:18:55.868Z,11.75
2019-05-10T19:21:24.989Z,11.63
2019-05-10T19:23:52.181Z,11.55
2019-05-10T19:26:18.571Z,11.45
2019-05-10T19:28:45.177Z,11.24
2019-05-10T19:31:14.543Z,11.09
2019-05-10T19:33:43.375Z,10.90
2019-05-10T19:36:13.041Z,10.75
2019-05-10T19:38:41.200Z,10.45
2019-05-10T19:41:08.577Z,10.18
2019-05-10T19:43:35.151Z,10.03
2019-05-10T19:46:12.156Z,9.96
2019-05-10T19:48:56.046Z,9.79
2019-05-10T19:51:25.177Z,9.70
2019-05-10T19:53:52.460Z,9.57
2019-05-10T19:56:20.526Z,9.56
2019-05-10T19:58:49.352Z,9.45
2019-05-10T20:01:18.105Z,9.36
2019-05-10T20:03:45.245Z,9.24
2019-05-10T20:06:12.018Z,9.10
2019-05-10T20:08:43.128Z,9.01
2019-05-10T20:11:14.313Z,8.96
2019-05-10T20:13:50.482Z,8.95
2019-05-10T20:16:17.213Z,8.91
2019-05-10T20:19:09.109Z,8.79
2019-05-10T20:22:12.524Z,8.61
2019-05-10T20:24:25.384Z,8.56
2019-05-10T20:26:52.204Z,8.34
2019-05-10T20:29:20.040Z,8.15
2019-05-10T20:31:52.861Z,8.07
2019-05-10T20:34:24.209Z,8.01
2019-05-10T20:36:49.975Z,8.03
2019-05-10T20:39:28.867Z,8.09
2019-05-10T20:42:00.041Z,7.99
2019-05-10T20:44:28.134Z,7.91
2019-05-10T20:46:55.013Z,7.81
2019-05-10T20:49:22.068Z,7.78
2019-05-10T20:51:48.572Z,7.69
2019-05-10T20:54:15.585Z,7.62
2019-05-10T20:56:42.551Z,7.63
2019-05-10T20:59:09.365Z,7.58
2019-05-10T21:01:35.963Z,7.57
2019-05-10T21:04:02.624Z,7.52
2019-05-10T21:06:29.116Z,7.50
2019-05-10T21:08:56.306Z,7.49
2019-05-10T21:11:22.820Z,7.49
2019-05-10T21:13:49.641Z,7.47
2019-05-10T21:16:16.429Z,7.46
2019-05-10T21:18:42.939Z,7.43
2019-05-10T21:21:09.488Z,7.39
2019-05-10T21:23:36.036Z,7.40
2019-05-10T21:26:02.870Z,7.40
2019-05-10T21:28:29.391Z,7.42
2019-05-10T21:30:56.061Z,7.42
2019-05-10T21:33:22.669Z,7.47
2019-05-10T21:35:49.251Z,7.54
2019-05-10T21:38:15.840Z,7.56
2019-05-10T21:40:42.328Z,7.57
2019-05-10T21:43:09.205Z,7.59
2019-05-10T21:45:36.005Z,7.56
2019-05-10T21:48:02.596Z,7.57
2019-05-10T21:50:29.111Z,7.54
2019-05-10T21:52:55.660Z,7.56
2019-05-10T21:55:23.686Z,7.57
2019-05-10T21:57:50.207Z,7.57
2019-05-10T22:00:18.486Z,7.62
2019-05-10T22:02:45.351Z,7.68
2019-05-10T22:05:12.738Z,7.70
2019-05-10T22:07:39.204Z,7.78
2019-05-10T22:10:05.955Z,7.93
2019-05-10T22:12:32.552Z,8.01
2019-05-10T22:14:59.142Z,8.04
2019-05-10T22:17:25.658Z,7.99
2019-05-10T22:19:52.564Z,7.99
2019-05-10T22:22:19.067Z,7.96
2019-05-10T22:24:45.634Z,7.92
2019-05-10T22:27:13.211Z,7.92
2019-05-10T22:29:39.877Z,7.93
2019-05-10T22:32:06.572Z,7.98
2019-05-10T22:34:34.282Z,7.98
2019-05-10T22:37:00.807Z,7.95
2019-05-10T22:39:27.386Z,7.93
2019-05-10T22:41:53.981Z,7.83
2019-05-10T22:44:20.644Z,7.75
2019-05-10T22:46:47.164Z,7.75
2019-05-10T22:49:13.830Z,7.82
2019-05-10T22:51:42.031Z,7.88
2019-05-10T22:54:08.597Z,7.84
2019-05-10T22:56:35.073Z,7.79
2019-05-10T22:59:01.992Z,7.82
2019-05-10T23:01:28.554Z,7.86
2019-05-10T23:03:55.039Z,7.87
2019-05-10T23:06:21.550Z,7.88
2019-05-10T23:08:48.025Z,7.93
2019-05-10T23:11:14.536Z,7.98
2019-05-10T23:13:40.997Z,8.03
2019-05-10T23:16:08.215Z,8.02
2019-05-10T23:18:34.760Z,8.04
2019-05-10T23:21:01.255Z,8.05
2019-05-10T23:23:27.799Z,8.05
2019-05-10T23:25:54.267Z,8.08
2019-05-10T23:28:20.960Z,8.11
2019-05-10T23:30:47.526Z,8.15
2019-05-10T23:33:14.292Z,8.17
2019-05-10T23:35:40.798Z,8.21
2019-05-10T23:38:07.273Z,8.29
2019-05-10T23:40:34.032Z,8.35
2019-05-10T23:43:00.859Z,8.40
2019-05-10T23:45:27.381Z,8.46
2019-05-10T23:47:53.836Z,8.43
2019-05-10T23:50:20.389Z,8.38
2019-05-10T23:52:46.905Z,8.33
2019-05-10T23:55:13.792Z,8.25
2019-05-10T23:57:40.355Z,8.19
